createdAt,value
2023-04-04T00:00:45.269Z,63.20
2023-04-04T00:03:17.703Z,63.32
2023-04-04T00:05:45.900Z,63.58
2023-04-04T00:08:13.395Z,63.72
2023-04-04T00:10:41.534Z,63.89
2023-04-04T00:13:09.821Z,64.32
2023-04-04T00:15:37.473Z,64.29
2023-04-04T00:18:05.097Z,64.76
2023-04-04T00:20:32.752Z,64.47
2023-04-04T00:23:00.679Z,64.95
2023-04-04T00:25:28.387Z,65.21
2023-04-04T00:27:56.278Z,66.04
2023-04-04T00:30:23.901Z,65.97
2023-04-04T00:32:51.870Z,66.52
2023-04-04T00:35:19.541Z,66.49
2023-04-04T00:37:46.798Z,66.13
2023-04-04T00:40:14.901Z,66.75
2023-04-04T00:42:42.474Z,66.18
2023-04-04T00:45:11.146Z,66.68
2023-04-04T00:47:43.380Z,66.95
2023-04-04T00:50:11.324Z,66.53
2023-04-04T00:52:38.839Z,66.88
2023-04-04T00:55:07.379Z,66.39
2023-04-04T00:57:36.187Z,67.13
2023-04-04T01:00:06.663Z,67.76
2023-04-04T01:02:35.823Z,67.29
2023-04-04T01:05:04.609Z,67.90
2023-04-04T01:07:32.652Z,67.59
2023-04-04T01:10:01.625Z,67.37
2023-04-04T01:12:29.186Z,67.62
2023-04-04T01:14:56.911Z,68.12
2023-04-04T01:17:26.107Z,68.17
2023-04-04T01:20:14.161Z,68.17
2023-04-04T01:22:44.042Z,68.11
2023-04-04T01:25:13.312Z,69.11
2023-04-04T01:27:40.741Z,68.85
2023-04-04T01:30:10.496Z,69.52
2023-04-04T01:32:51.980Z,69.75
2023-04-04T01:35:25.836Z,69.44
2023-04-04T01:38:01.155Z,69.36
2023-04-04T01:40:35.600Z,69.31
2023-04-04T01:43:03.922Z,69.83
2023-04-04T01:45:33.067Z,69.85
2023-04-04T01:48:00.433Z,69.97
2023-04-04T01:50:28.032Z,69.94
2023-04-04T01:52:55.363Z,69.52
2023-04-04T01:55:22.974Z,70.36
2023-04-04T01:57:51.334Z,70.23
2023-04-04T02:00:19.420Z,70.46
2023-04-04T02:02:46.729Z,70.36
2023-04-04T02:05:14.572Z,70.17
2023-04-04T02:07:42.008Z,70.06
2023-04-04T02:10:09.900Z,70.56
2023-04-04T02:12:37.155Z,70.50
2023-04-04T02:15:05.273Z,70.78
2023-04-04T02:17:32.710Z,70.61
2023-04-04T02:20:00.305Z,70.49
2023-04-04T02:22:27.872Z,70.50
2023-04-04T02:24:57.704Z,70.80
2023-04-04T02:27:25.173Z,70.37
2023-04-04T02:29:53.967Z,71.03
2023-04-04T02:32:21.712Z,70.92
2023-04-04T02:34:49.316Z,70.68
2023-04-04T02:37:17.925Z,70.33
2023-04-04T02:39:45.765Z,70.97
2023-04-04T02:42:13.084Z,70.66
2023-04-04T02:44:40.677Z,70.52
2023-04-04T02:47:08.022Z,70.81
2023-04-04T02:49:35.940Z,70.71
2023-04-04T02:52:03.227Z,70.57
2023-04-04T02:54:30.898Z,70.91
2023-04-04T02:56:58.158Z,71.20
2023-04-04T02:59:26.110Z,71.25
2023-04-04T03:01:53.597Z,71.72
2023-04-04T03:04:21.306Z,71.60
2023-04-04T03:06:48.529Z,71.34
2023-04-04T03:09:16.284Z,72.10
2023-04-04T03:11:43.538Z,71.81
2023-04-04T03:14:11.432Z,72.03
2023-04-04T03:16:39.601Z,72.27
2023-04-04T03:19:07.629Z,72.16
2023-04-04T03:21:35.046Z,72.12
2023-04-04T03:24:02.769Z,72.20
2023-04-04T03:26:30.127Z,71.82
2023-04-04T03:28:57.739Z,71.80
2023-04-04T03:31:25.235Z,71.88
2023-04-04T03:33:52.983Z,71.76
2023-04-04T03:36:21.227Z,71.75
2023-04-04T03:38:48.893Z,71.19
2023-04-04T03:41:16.278Z,71.33
2023-04-04T03:43:45.171Z,71.28
2023-04-04T03:46:12.612Z,71.18
2023-04-04T03:48:40.338Z,71.45
2023-04-04T03:51:07.878Z,71.10
2023-04-04T03:53:36.893Z,71.30
2023-04-04T03:56:04.877Z,71.30
2023-04-04T03:58:32.495Z,71.37
2023-04-04T04:00:59.845Z,71.13
2023-04-04T04:03:27.614Z,71.21
2023-04-04T04:05:55.478Z,71.18
2023-04-04T04:08:24.017Z,71.09
2023-04-04T04:10:52.640Z,70.63
2023-04-04T04:13:20.602Z,71.36
2023-04-04T04:15:48.038Z,70.82
2023-04-04T04:18:15.853Z,70.82
2023-04-04T04:20:43.316Z,71.08
2023-04-04T04:23:11.263Z,71.43
2023-04-04T04:25:38.543Z,71.06
2023-04-04T04:28:06.135Z,71.39
2023-04-04T04:30:33.486Z,72.13
2023-04-04T04:33:01.099Z,71.71
2023-04-04T04:35:28.467Z,71.37
2023-04-04T04:37:56.560Z,71.36
2023-04-04T04:40:23.816Z,71.57
2023-04-04T04:42:52.003Z,71.87
2023-04-04T04:45:20.877Z,71.54
2023-04-04T04:47:48.493Z,72.30
2023-04-04T04:50:16.353Z,71.96
2023-04-04T04:52:44.327Z,72.01
2023-04-04T04:55:12.049Z,71.90
2023-04-04T04:57:39.596Z,71.58
2023-04-04T05:00:07.890Z,71.61
2023-04-04T05:02:35.782Z,71.53
2023-04-04T05:05:03.287Z,71.63
2023-04-04T05:07:30.863Z,70.60
2023-04-04T05:09:58.112Z,69.71
2023-04-04T05:12:25.658Z,69.28
2023-04-04T05:14:53.035Z,69.27
2023-04-04T05:17:22.750Z,68.63
2023-04-04T05:19:50.125Z,68.11
2023-04-04T05:22:17.689Z,67.74
2023-04-04T05:24:44.950Z,67.18
2023-04-04T05:27:12.613Z,66.84
2023-04-04T05:29:39.928Z,66.71
2023-04-04T05:32:07.739Z,66.30
2023-04-04T05:34:35.139Z,65.32
2023-04-04T05:37:02.656Z,64.85
2023-04-04T05:39:29.977Z,64.50
2023-04-04T05:41:57.579Z,64.14
2023-04-04T05:44:25.783Z,63.37
2023-04-04T05:46:53.353Z,62.28
2023-04-04T05:49:20.636Z,62.01
2023-04-04T05:51:48.189Z,62.01
2023-04-04T05:54:15.391Z,61.79
2023-04-04T05:56:42.935Z,60.99
2023-04-04T05:59:10.316Z,60.45
2023-04-04T06:01:37.853Z,60.43
2023-04-04T06:04:05.083Z,59.85
2023-04-04T06:06:34.727Z,59.45
2023-04-04T06:09:02.417Z,59.84
2023-04-04T06:11:30.125Z,58.99
2023-04-04T06:13:57.366Z,58.87
2023-04-04T06:16:24.976Z,58.51
2023-04-04T06:18:52.282Z,58.75
2023-04-04T06:21:19.811Z,58.24
2023-04-04T06:23:47.395Z,58.30
2023-04-04T06:26:15.110Z,58.26
2023-04-04T06:28:51.443Z,58.50
2023-04-04T06:31:19.007Z,58.29
2023-04-04T06:33:46.614Z,61.49
2023-04-04T06:36:14.133Z,61.04
2023-04-04T06:38:41.351Z,60.01
2023-04-04T06:41:08.884Z,59.78
2023-04-04T06:43:36.131Z,59.30
2023-04-04T06:46:04.158Z,59.21
2023-04-04T06:48:31.436Z,58.10
2023-04-04T06:50:59.008Z,57.92
2023-04-04T06:53:26.348Z,57.88
2023-04-04T06:55:53.898Z,57.81
2023-04-04T06:58:21.358Z,57.08
2023-04-04T07:00:49.004Z,53.29
2023-04-04T07:03:16.992Z,47.76
2023-04-04T07:05:44.618Z,41.99
2023-04-04T07:08:11.938Z,38.46
2023-04-04T07:10:40.677Z,35.75
2023-04-04T07:13:08.598Z,32.50
2023-04-04T07:15:36.432Z,30.12
2023-04-04T07:18:03.801Z,30.48
2023-04-04T07:20:32.372Z,26.97
2023-04-04T07:22:59.679Z,25.59
2023-04-04T07:25:27.294Z,26.42
2023-04-04T07:28:09.642Z,24.96
2023-04-04T07:30:40.064Z,27.66
2023-04-04T07:33:07.711Z,23.97
2023-04-04T07:35:35.836Z,22.04
2023-04-04T07:38:04.386Z,20.38
2023-04-04T07:40:32.119Z,19.33
2023-04-04T07:42:59.457Z,18.18
2023-04-04T07:45:27.138Z,16.57
2023-04-04T07:47:54.633Z,16.21
2023-04-04T07:50:22.745Z,14.77
2023-04-04T07:52:54.510Z,14.32
2023-04-04T07:55:25.276Z,14.38
2023-04-04T07:57:54.671Z,13.41
2023-04-04T08:00:25.847Z,14.17
2023-04-04T08:02:59.140Z,17.63
2023-04-04T08:05:27.207Z,15.01
2023-04-04T08:07:54.725Z,17.37
2023-04-04T08:10:22.306Z,20.15
2023-04-04T08:12:49.667Z,20.28
2023-04-04T08:15:17.348Z,17.54
2023-04-04T08:17:44.807Z,18.35
2023-04-04T08:20:13.307Z,19.55
2023-04-04T08:22:42.239Z,18.72
2023-04-04T08:25:11.343Z,20.27
2023-04-04T08:27:44.140Z,22.38
2023-04-04T08:30:14.489Z,24.97
2023-04-04T08:32:44.354Z,23.73
2023-04-04T08:35:12.989Z,18.76
2023-04-04T08:37:45.885Z,19.08
2023-04-04T08:40:14.390Z,16.50
2023-04-04T08:42:47.143Z,12.68
2023-04-04T08:45:22.742Z,11.72
2023-04-04T08:47:52.563Z,9.88
2023-04-04T08:50:21.780Z,10.21
2023-04-04T08:52:50.037Z,10.18
2023-04-04T08:55:18.048Z,10.45
2023-04-04T08:57:45.374Z,13.58
2023-04-04T09:00:14.786Z,15.78
2023-04-04T09:03:03.864Z,16.84
2023-04-04T09:05:33.031Z,18.41
2023-04-04T09:08:00.987Z,14.95
2023-04-04T09:10:29.910Z,17.04
2023-04-04T09:13:08.678Z,16.94
2023-04-04T09:15:52.398Z,16.17
2023-04-04T09:18:20.017Z,13.84
2023-04-04T09:20:48.887Z,9.99
2023-04-04T09:23:23.593Z,9.30
2023-04-04T09:28:26.433Z,8.60
2023-04-04T09:30:54.098Z,10.98
2023-04-04T09:33:26.396Z,13.00
2023-04-04T09:36:07.823Z,13.69
2023-04-04T09:38:44.190Z,10.27
2023-04-04T09:41:16.226Z,7.87
2023-04-04T09:43:46.229Z,9.31
2023-04-04T09:46:16.005Z,12.18
2023-04-04T09:48:51.131Z,13.58
2023-04-04T09:51:18.977Z,15.48
2023-04-04T09:53:49.021Z,17.22
2023-04-04T09:56:17.126Z,17.28
2023-04-04T09:59:00.771Z,18.09
2023-04-04T10:01:31.605Z,18.98
2023-04-04T10:03:59.584Z,18.92
2023-04-04T10:06:27.614Z,19.43
2023-04-04T10:08:56.858Z,17.84
2023-04-04T10:11:33.781Z,18.34
2023-04-04T10:14:05.956Z,19.72
2023-04-04T10:16:37.220Z,19.17
2023-04-04T10:19:08.032Z,20.28
2023-04-04T10:21:36.068Z,20.43
2023-04-04T10:24:09.992Z,21.80
2023-04-04T10:26:38.065Z,22.38
2023-04-04T10:29:06.151Z,22.55
2023-04-04T10:31:41.622Z,21.59
2023-04-04T10:34:36.176Z,12.30
2023-04-04T10:37:13.299Z,9.77
2023-04-04T10:40:10.259Z,11.62
2023-04-04T10:42:47.266Z,13.74
2023-04-04T10:45:21.481Z,15.42
2023-04-04T10:47:50.935Z,17.25
2023-04-04T10:50:20.723Z,18.15
2023-04-04T10:52:49.419Z,18.88
2023-04-04T10:55:17.315Z,19.04
2023-04-04T10:57:52.016Z,18.43
2023-04-04T11:00:23.391Z,16.63
2023-04-04T11:02:57.895Z,11.45
2023-04-04T11:05:34.472Z,10.48
2023-04-04T11:08:09.298Z,12.21
2023-04-04T11:10:57.921Z,10.04
2023-04-04T11:13:35.884Z,12.25
2023-04-04T11:16:15.298Z,13.77
2023-04-04T11:18:46.000Z,10.98
2023-04-04T11:21:20.665Z,7.66
2023-04-04T11:23:48.603Z,6.74
2023-04-04T11:26:35.601Z,5.29
2023-04-04T11:29:09.893Z,5.24
2023-04-04T11:31:48.809Z,4.30
2023-04-04T11:34:31.996Z,6.72
2023-04-04T11:37:02.036Z,9.20
2023-04-04T11:39:31.487Z,10.62
2023-04-04T11:42:14.997Z,9.61
2023-04-04T11:45:04.459Z,6.98
2023-04-04T11:47:32.041Z,5.58
2023-04-04T11:50:07.374Z,4.72
2023-04-04T11:52:35.697Z,3.65
2023-04-04T11:55:23.140Z,5.14
2023-04-04T11:57:51.479Z,6.96
2023-04-04T12:00:35.064Z,4.86
2023-04-04T12:03:04.621Z,4.36
2023-04-04T12:05:32.513Z,4.99
2023-04-04T12:08:02.335Z,7.91
2023-04-04T12:10:34.541Z,9.92
2023-04-04T12:13:05.663Z,11.48
2023-04-04T12:15:38.132Z,12.59
2023-04-04T12:18:09.905Z,14.13
2023-04-04T12:20:41.671Z,15.19
2023-04-04T12:23:09.798Z,17.18
2023-04-04T12:25:40.347Z,17.99
2023-04-04T12:28:08.872Z,18.90
2023-04-04T12:30:38.501Z,19.36
2023-04-04T12:33:07.769Z,17.95
2023-04-04T12:35:36.344Z,12.00
2023-04-04T12:38:10.723Z,9.64
2023-04-04T12:40:39.738Z,12.55
2023-04-04T12:43:09.468Z,14.35
2023-04-04T12:45:39.638Z,15.47
2023-04-04T12:48:18.238Z,16.53
2023-04-04T12:51:00.859Z,18.22
2023-04-04T12:53:30.364Z,19.78
2023-04-04T12:56:04.853Z,20.62
2023-04-04T12:58:34.882Z,22.25
2023-04-04T13:01:04.389Z,23.09
2023-04-04T13:03:33.924Z,23.84
2023-04-04T13:06:02.642Z,23.70
2023-04-04T13:08:30.294Z,24.10
2023-04-04T13:11:07.052Z,24.24
2023-04-04T13:13:44.283Z,23.84
2023-04-04T13:16:38.229Z,23.61
2023-04-04T13:19:05.785Z,23.09
2023-04-04T13:21:35.310Z,22.96
2023-04-04T13:24:04.094Z,23.04
2023-04-04T13:26:31.819Z,22.92
2023-04-04T13:28:59.223Z,22.43
2023-04-04T13:31:27.270Z,22.82
2023-04-04T13:33:54.586Z,23.10
2023-04-04T13:36:22.186Z,24.35
2023-04-04T13:38:49.567Z,24.45
2023-04-04T13:41:17.173Z,24.88
2023-04-04T13:43:44.479Z,24.95
2023-04-04T13:46:12.253Z,25.71
2023-04-04T13:48:39.593Z,25.45
2023-04-04T13:51:07.330Z,26.07
2023-04-04T13:53:34.618Z,25.70
2023-04-04T13:56:17.785Z,25.27
2023-04-04T13:58:46.537Z,23.93
2023-04-04T14:01:14.173Z,21.61
2023-04-04T14:03:41.642Z,17.94
2023-04-04T14:06:10.836Z,16.63
2023-04-04T14:08:39.551Z,16.73
2023-04-04T14:11:07.268Z,14.62
2023-04-04T14:13:34.690Z,13.79
2023-04-04T14:16:02.206Z,12.94
2023-04-04T14:18:29.529Z,14.03
2023-04-04T14:20:57.117Z,15.68
2023-04-04T14:23:24.439Z,17.96
2023-04-04T14:25:52.243Z,18.77
2023-04-04T14:28:19.547Z,19.87
2023-04-04T14:30:47.111Z,20.71
2023-04-04T14:33:14.440Z,21.44
2023-04-04T14:35:42.330Z,21.44
2023-04-04T14:38:09.884Z,21.35
2023-04-04T14:40:37.606Z,22.62
2023-04-04T14:43:04.858Z,22.69
2023-04-04T14:45:33.265Z,23.45
2023-04-04T14:48:00.715Z,22.69
2023-04-04T14:50:28.315Z,23.00
2023-04-04T14:52:56.765Z,22.70
2023-04-04T14:55:24.652Z,23.58
2023-04-04T15:00:24.364Z,23.91
2023-04-04T15:02:52.611Z,24.45
2023-04-04T15:05:20.494Z,25.27
2023-04-04T15:07:49.500Z,25.20
2023-04-04T15:10:17.329Z,25.75
2023-04-04T15:12:44.686Z,25.76
2023-04-04T15:15:13.394Z,27.00
2023-04-04T15:17:42.286Z,26.43
2023-04-04T15:20:10.929Z,26.84
2023-04-04T15:22:38.819Z,27.28
2023-04-04T15:25:08.410Z,28.06
2023-04-04T15:27:36.193Z,27.91
2023-04-04T15:30:04.412Z,28.35
2023-04-04T15:32:31.669Z,28.26
2023-04-04T15:34:59.316Z,28.60
2023-04-04T15:37:26.658Z,28.78
2023-04-04T15:39:54.840Z,29.31
2023-04-04T15:42:22.166Z,29.48
2023-04-04T15:44:49.697Z,29.58
2023-04-04T15:47:17.361Z,30.27
2023-04-04T15:49:44.882Z,30.53
2023-04-04T15:52:12.397Z,30.41
2023-04-04T15:54:39.972Z,30.24
2023-04-04T15:57:07.281Z,30.45
2023-04-04T15:59:34.943Z,30.75
2023-04-04T16:02:06.493Z,30.61
2023-04-04T16:04:34.424Z,30.89
2023-04-04T16:07:01.713Z,30.79
2023-04-04T16:09:29.434Z,31.19
2023-04-04T16:11:57.306Z,31.74
2023-04-04T16:14:25.163Z,32.21
2023-04-04T16:16:52.719Z,32.31
2023-04-04T16:19:20.643Z,32.19
2023-04-04T16:21:49.374Z,32.70
2023-04-04T16:24:16.961Z,32.98
2023-04-04T16:26:47.505Z,33.33
2023-04-04T16:29:18.578Z,33.72
2023-04-04T16:31:46.003Z,33.79
2023-04-04T16:34:13.891Z,34.00
2023-04-04T16:36:41.404Z,33.99
2023-04-04T16:39:09.102Z,33.99
2023-04-04T16:41:40.895Z,36.30
2023-04-04T16:44:08.779Z,35.48
2023-04-04T16:46:36.472Z,35.10
2023-04-04T16:49:04.039Z,36.27
2023-04-04T16:51:32.166Z,36.36
2023-04-04T16:53:59.800Z,36.15
2023-04-04T16:56:27.122Z,36.28
2023-04-04T16:58:54.727Z,36.73
2023-04-04T17:01:23.072Z,36.34
2023-04-04T17:03:50.978Z,36.38
2023-04-04T17:06:18.312Z,37.68
2023-04-04T17:08:46.836Z,37.44
2023-04-04T17:11:14.380Z,37.70
2023-04-04T17:13:42.345Z,37.81
2023-04-04T17:16:10.014Z,37.84
2023-04-04T17:18:37.761Z,38.08
2023-04-04T17:21:05.481Z,38.17
2023-04-04T17:23:33.802Z,38.24
2023-04-04T17:26:01.072Z,37.94
2023-04-04T17:28:28.644Z,38.05
2023-04-04T17:30:56.517Z,38.01
2023-04-04T17:33:24.134Z,38.34
2023-04-04T17:35:51.559Z,38.40
2023-04-04T17:38:20.661Z,38.69
2023-04-04T17:40:49.671Z,38.39
2023-04-04T17:43:17.204Z,39.23
2023-04-04T17:45:45.015Z,38.57
2023-04-04T17:48:12.873Z,38.87
2023-04-04T17:50:40.633Z,39.48
2023-04-04T17:53:08.527Z,39.50
2023-04-04T17:55:36.845Z,39.41
2023-04-04T17:58:04.390Z,39.63
2023-04-04T18:00:31.610Z,39.45
2023-04-04T18:02:59.326Z,39.85
2023-04-04T18:05:27.248Z,39.19
2023-04-04T18:07:54.905Z,39.59
2023-04-04T18:10:22.095Z,39.18
2023-04-04T18:12:49.711Z,39.05
2023-04-04T18:15:16.991Z,38.72
2023-04-04T18:17:44.594Z,39.09
2023-04-04T18:20:16.343Z,38.54
2023-04-04T18:22:48.944Z,38.77
2023-04-04T18:25:17.929Z,38.65
2023-04-04T18:27:46.078Z,39.12
2023-04-04T18:30:13.632Z,39.23
2023-04-04T18:32:41.426Z,39.08
2023-04-04T18:35:09.113Z,39.13
2023-04-04T18:37:37.565Z,39.19
2023-04-04T18:40:05.558Z,39.14
2023-04-04T18:42:35.195Z,39.73
2023-04-04T18:45:03.062Z,39.78
2023-04-04T18:47:30.671Z,40.08
2023-04-04T18:49:58.032Z,39.93
2023-04-04T18:52:25.634Z,39.88
2023-04-04T18:54:52.948Z,40.54
2023-04-04T18:57:20.498Z,40.42
2023-04-04T18:59:47.828Z,40.93
2023-04-04T19:02:15.361Z,40.61
2023-04-04T19:04:43.879Z,41.21
2023-04-04T19:07:12.116Z,41.13
2023-04-04T19:09:41.381Z,40.37
2023-04-04T19:12:09.905Z,40.66
2023-04-04T19:14:37.266Z,40.33
2023-04-04T19:17:04.989Z,40.72
2023-04-04T19:19:32.298Z,40.70
2023-04-04T19:22:00.076Z,40.63
2023-04-04T19:24:27.488Z,40.46
2023-04-04T19:26:55.104Z,40.75
2023-04-04T19:29:22.506Z,40.85
2023-04-04T19:31:52.794Z,41.06
2023-04-04T19:34:20.119Z,40.89
2023-04-04T19:36:47.801Z,40.73
2023-04-04T19:39:20.133Z,41.09
2023-04-04T19:41:47.790Z,41.57
2023-04-04T19:44:21.380Z,41.26
2023-04-04T19:46:50.205Z,41.44
2023-04-04T19:49:18.045Z,41.71
2023-04-04T19:51:57.678Z,41.65
2023-04-04T19:54:40.927Z,41.82
2023-04-04T19:57:19.597Z,41.77
2023-04-04T20:00:03.914Z,41.93
2023-04-04T20:02:31.486Z,41.93
2023-04-04T20:04:59.050Z,42.45
2023-04-04T20:07:29.045Z,42.12
2023-04-04T20:09:56.754Z,42.03
2023-04-04T20:12:25.757Z,42.27
2023-04-04T20:14:59.425Z,42.35
2023-04-04T20:17:27.191Z,42.44
2023-04-04T20:19:54.515Z,42.69
2023-04-04T20:22:23.529Z,42.83
2023-04-04T20:24:51.027Z,42.89
2023-04-04T20:27:27.798Z,42.82
2023-04-04T20:29:55.138Z,43.44
2023-04-04T20:32:22.953Z,43.50
2023-04-04T20:34:50.728Z,43.39
2023-04-04T20:37:25.017Z,43.88
2023-04-04T20:40:00.186Z,43.36
2023-04-04T20:42:29.395Z,44.07
2023-04-04T20:45:33.157Z,44.25
2023-04-04T20:48:03.883Z,44.44
2023-04-04T20:50:36.304Z,44.69
2023-04-04T20:53:06.332Z,44.98
2023-04-04T20:55:35.818Z,45.31
2023-04-04T20:58:27.002Z,45.64
2023-04-04T21:00:57.050Z,45.41
2023-04-04T21:03:31.486Z,45.27
2023-04-04T21:06:14.736Z,45.56
2023-04-04T21:08:50.743Z,45.85
2023-04-04T21:11:33.466Z,45.99
2023-04-04T21:14:01.110Z,45.90
2023-04-04T21:16:29.601Z,46.66
2023-04-04T21:19:01.833Z,46.26
2023-04-04T21:21:29.983Z,46.29
2023-04-04T21:24:01.690Z,46.18
2023-04-04T21:26:41.020Z,46.31
2023-04-04T21:29:21.993Z,46.50
2023-04-04T21:31:52.653Z,47.15
2023-04-04T21:34:23.589Z,47.02
2023-04-04T21:36:55.978Z,46.65
2023-04-04T21:39:29.548Z,46.89
2023-04-04T21:42:08.511Z,47.73
2023-04-04T21:44:36.682Z,47.43
2023-04-04T21:47:04.746Z,47.57
2023-04-04T21:49:32.354Z,47.74
2023-04-04T21:51:59.666Z,48.03
2023-04-04T21:54:27.256Z,48.25
2023-04-04T21:56:54.471Z,48.56
2023-04-04T21:59:22.042Z,48.43
2023-04-04T22:01:50.830Z,48.86
2023-04-04T22:04:18.474Z,48.43
2023-04-04T22:06:46.122Z,48.17
2023-04-04T22:09:16.147Z,48.39
2023-04-04T22:11:44.634Z,48.31
2023-04-04T22:14:18.204Z,48.60
2023-04-04T22:16:45.830Z,48.45
2023-04-04T22:19:13.595Z,48.78
2023-04-04T22:21:48.221Z,49.14
2023-04-04T22:24:18.515Z,48.76
2023-04-04T22:26:46.240Z,48.87
2023-04-04T22:29:14.267Z,48.97
2023-04-04T22:31:41.701Z,49.07
2023-04-04T22:34:09.672Z,48.62
2023-04-04T22:36:38.732Z,48.83
2023-04-04T22:39:06.415Z,48.76
2023-04-04T22:41:33.705Z,48.52
2023-04-04T22:44:01.286Z,48.98
2023-04-04T22:46:29.635Z,48.87
2023-04-04T22:49:05.663Z,49.02
2023-04-04T22:51:44.085Z,48.89
2023-04-04T22:54:16.790Z,49.23
2023-04-04T22:56:44.657Z,49.37
2023-04-04T22:59:12.530Z,50.02
2023-04-04T23:01:40.253Z,50.54
2023-04-04T23:04:08.287Z,50.61
2023-04-04T23:06:36.127Z,50.93
2023-04-04T23:09:04.255Z,51.13
2023-04-04T23:11:31.527Z,51.13
2023-04-04T23:14:00.502Z,50.92
2023-04-04T23:16:29.044Z,51.12
2023-04-04T23:18:57.252Z,52.35
2023-04-04T23:21:25.096Z,53.41
2023-04-04T23:23:52.818Z,52.94
2023-04-04T23:26:20.086Z,53.16
2023-04-04T23:28:47.834Z,54.86
2023-04-04T23:31:16.367Z,54.68
2023-04-04T23:33:44.144Z,54.83
2023-04-04T23:36:11.414Z,55.57
2023-04-04T23:38:38.993Z,55.41
2023-04-04T23:41:06.818Z,55.14
2023-04-04T23:43:36.072Z,54.78
2023-04-04T23:46:03.805Z,54.49
2023-04-04T23:48:32.101Z,54.69
2023-04-04T23:51:01.843Z,55.16
2023-04-04T23:53:29.688Z,54.71
2023-04-04T23:55:57.043Z,54.75
2023-04-04T23:58:24.737Z,54.19
